Time;durP1;ratioP1;P1;durP2;ratioP2;P2;SDS_P1;SDS_P2;PMS_P1;PMS_P2;Temp;Humidity;BMP_temperature;BMP_pressure;BME280_temperature;BME280_humidity;BME280_pressure;Samples;Min_cycle;Max_cycle;Signal;HPM_P1;HPM_P2
2021/12/02 00:01:32;;;;;;;1.50;0.90;;;21.80;37.00;;;;;;4972801;28;20415;-68
2021/12/02 00:03:57;;;;;;;1.73;0.88;;;21.80;37.00;;;;;;4973798;28;20407;-67
2021/12/02 00:06:24;;;;;;;1.50;0.90;;;21.80;37.00;;;;;;4972707;28;20503;-68
2021/12/02 00:08:51;;;;;;;1.90;1.00;;;21.80;36.90;;;;;;4970689;28;20384;-68
2021/12/02 00:11:18;;;;;;;1.40;0.90;;;21.80;36.90;;;;;;4969287;28;20467;-68
2021/12/02 00:21:21;;;;;;;1.42;0.98;;;21.80;36.90;;;;;;4970605;28;20505;-69
2021/12/02 00:23:55;;;;;;;1.45;0.90;;;21.80;36.90;;;;;;4973759;28;20398;-68
2021/12/02 00:26:21;;;;;;;1.50;1.00;;;21.80;36.80;;;;;;4969292;28;20507;-69
2021/12/02 00:28:59;;;;;;;1.58;1.00;;;21.80;36.80;;;;;;4973477;28;20398;-68
2021/12/02 00:31:29;;;;;;;1.30;0.90;;;21.80;36.80;;;;;;4971602;28;20441;-68
2021/12/02 00:33:57;;;;;;;1.20;0.80;;;21.80;36.80;;;;;;4976454;28;20991;-72
2021/12/02 00:36:25;;;;;;;1.55;0.80;;;21.80;36.80;;;;;;4974752;28;20395;-71
2021/12/02 00:38:52;;;;;;;2.00;1.00;;;21.80;36.70;;;;;;4968541;28;20423;-67
2021/12/02 00:41:21;;;;;;;1.40;0.80;;;21.80;36.70;;;;;;4975203;28;20659;-68
2021/12/02 00:43:51;;;;;;;1.50;1.00;;;21.80;36.70;;;;;;4974639;28;20445;-68
2021/12/02 00:46:20;;;;;;;1.95;0.88;;;21.80;36.70;;;;;;4967382;28;20467;-68
2021/12/02 00:48:47;;;;;;;1.58;0.90;;;21.80;36.80;;;;;;4972610;28;20437;-67
2021/12/02 00:51:13;;;;;;;1.17;0.80;;;21.80;36.70;;;;;;4980590;28;20410;-67
2021/12/02 00:53:43;;;;;;;1.02;0.80;;;21.80;36.70;;;;;;4974193;28;20404;-68
2021/12/02 00:56:12;;;;;;;1.27;0.80;;;21.80;36.70;;;;;;4978648;28;20391;-67
2021/12/02 00:58:39;;;;;;;1.35;0.80;;;21.80;36.70;;;;;;4968466;28;20392;-67
2021/12/02 01:01:05;;;;;;;1.20;0.80;;;21.80;36.70;;;;;;4967977;28;20388;-68
2021/12/02 01:03:34;;;;;;;1.10;0.70;;;21.80;36.70;;;;;;4971715;28;20398;-74
2021/12/02 01:06:01;;;;;;;1.60;0.75;;;21.70;36.70;;;;;;4975650;28;20429;-69
2021/12/02 01:08:27;;;;;;;1.15;0.80;;;21.70;36.70;;;;;;4969865;28;20399;-70
2021/12/02 01:10:54;;;;;;;1.20;0.70;;;21.80;36.70;;;;;;4967103;28;20403;-67
2021/12/02 01:13:20;;;;;;;1.27;0.73;;;21.70;36.70;;;;;;4971628;28;20993;-68
2021/12/02 01:15:46;;;;;;;1.40;0.77;;;21.70;36.70;;;;;;4976455;28;20496;-68
2021/12/02 01:18:12;;;;;;;1.05;0.70;;;21.70;36.70;;;;;;4972574;28;20898;-68
2021/12/02 01:20:39;;;;;;;1.48;0.75;;;21.70;36.70;;;;;;4971542;28;20418;-68
2021/12/02 01:23:07;;;;;;;1.38;0.88;;;21.70;36.70;;;;;;4973033;28;20482;-68
2021/12/02 01:25:34;;;;;;;1.38;0.70;;;21.70;36.70;;;;;;4974701;28;20882;-68
2021/12/02 01:28:00;;;;;;;1.33;0.80;;;21.70;36.70;;;;;;4969724;28;20465;-67
2021/12/02 01:30:30;;;;;;;1.63;0.70;;;21.70;36.70;;;;;;4974571;28;20554;-68
2021/12/02 01:33:05;;;;;;;1.25;0.80;;;21.70;36.70;;;;;;4968931;28;20440;-67
2021/12/02 01:35:32;;;;;;;1.10;0.70;;;21.70;36.70;;;;;;4971258;28;20398;-68
2021/12/02 01:37:58;;;;;;;1.10;0.70;;;21.70;36.70;;;;;;4967348;28;20941;-68
2021/12/02 01:40:26;;;;;;;1.38;0.75;;;21.70;36.70;;;;;;4964084;28;20891;-68
2021/12/02 01:42:54;;;;;;;1.30;0.70;;;21.70;36.70;;;;;;4968983;28;20838;-67
2021/12/02 01:45:23;;;;;;;1.00;0.60;;;21.70;36.70;;;;;;4974189;28;20404;-67
2021/12/02 01:47:51;;;;;;;1.27;0.73;;;21.70;36.60;;;;;;4968602;28;20400;-68
2021/12/02 01:50:20;;;;;;;1.23;0.70;;;21.70;36.70;;;;;;4965379;28;20390;-68
2021/12/02 01:52:58;;;;;;;1.75;0.73;;;21.70;36.60;;;;;;4973044;28;20437;-68
2021/12/02 01:55:24;;;;;;;0.98;0.60;;;21.70;36.60;;;;;;4974611;28;20394;-70
2021/12/02 01:58:00;;;;;;;1.15;0.68;;;21.60;36.60;;;;;;4966592;28;20569;-67
2021/12/02 02:00:44;;;;;;;1.20;0.80;;;21.60;36.60;;;;;;4978541;28;21228;-68
2021/12/02 02:03:11;;;;;;;1.35;0.90;;;21.60;36.60;;;;;;4967348;28;20882;-70
2021/12/02 02:05:38;;;;;;;1.20;0.75;;;21.60;36.60;;;;;;4968852;28;20392;-68
2021/12/02 02:08:10;;;;;;;1.00;0.70;;;21.60;36.70;;;;;;4972433;28;20395;-68
2021/12/02 02:10:38;;;;;;;0.95;0.60;;;21.60;36.60;;;;;;4972902;28;20395;-68
2021/12/02 02:13:07;;;;;;;1.17;0.70;;;21.60;36.60;;;;;;4967737;28;20435;-68
2021/12/02 02:15:34;;;;;;;0.80;0.70;;;21.60;36.60;;;;;;4968156;28;20913;-68
2021/12/02 02:18:09;;;;;;;1.20;0.70;;;21.60;36.60;;;;;;4964636;28;20432;-68
2021/12/02 02:20:56;;;;;;;1.00;0.60;;;21.60;36.60;;;;;;4967233;28;20416;-68
2021/12/02 02:23:24;;;;;;;1.20;0.70;;;21.60;36.60;;;;;;4969233;28;20439;-67
2021/12/02 02:25:49;;;;;;;1.20;0.68;;;21.60;36.60;;;;;;4973766;28;21052;-68
2021/12/02 02:28:15;;;;;;;0.87;0.60;;;21.60;36.60;;;;;;4973690;28;21071;-68
2021/12/02 02:30:42;;;;;;;1.45;0.80;;;21.60;36.60;;;;;;4969944;28;20383;-69
2021/12/02 02:33:11;;;;;;;1.05;0.70;;;21.60;36.60;;;;;;4977985;28;20421;-68
2021/12/02 02:35:37;;;;;;;1.00;0.70;;;21.60;36.60;;;;;;4973026;28;20746;-68
2021/12/02 02:38:04;;;;;;;1.77;0.60;;;21.60;36.70;;;;;;4966512;28;20408;-67
2021/12/02 02:40:30;;;;;;;2.30;0.70;;;21.60;36.60;;;;;;4972510;28;20407;-68
2021/12/02 02:42:59;;;;;;;1.10;0.60;;;21.60;37.30;;;;;;4966614;28;20397;-68
2021/12/02 02:45:25;;;;;;;1.00;0.60;;;21.60;36.60;;;;;;4973597;28;20872;-68
2021/12/02 02:47:52;;;;;;;1.00;0.60;;;21.60;36.60;;;;;;4974790;28;20951;-67
2021/12/02 02:50:18;;;;;;;1.13;0.70;;;21.60;36.60;;;;;;4974000;28;20386;-68
2021/12/02 02:52:45;;;;;;;1.10;0.77;;;21.60;36.60;;;;;;4970719;28;20517;-67
2021/12/02 02:55:15;;;;;;;1.20;0.68;;;21.60;36.60;;;;;;4974751;28;20400;-68
2021/12/02 02:57:50;;;;;;;0.77;0.60;;;21.50;36.50;;;;;;4975487;28;20459;-69
2021/12/02 03:00:21;;;;;;;0.95;0.60;;;21.50;36.60;;;;;;4970050;28;20497;-68
2021/12/02 03:05:27;;;;;;;0.90;0.57;;;21.60;36.60;;;;;;4976577;28;20402;-68
2021/12/02 03:07:56;;;;;;;0.82;0.70;;;21.60;36.60;;;;;;4971012;28;20432;-68
2021/12/02 03:17:44;;;;;;;1.05;0.65;;;21.50;36.50;;;;;;4974776;28;20930;-67
2021/12/02 03:20:10;;;;;;;2.00;0.80;;;21.50;36.50;;;;;;4970944;28;20415;-68
2021/12/02 03:22:36;;;;;;;1.20;0.68;;;21.50;36.50;;;;;;4971932;28;20411;-68
2021/12/02 03:25:04;;;;;;;0.80;0.60;;;21.50;36.60;;;;;;4975594;28;20401;-68
2021/12/02 03:27:30;;;;;;;0.80;0.60;;;21.50;36.50;;;;;;4973627;28;20754;-68
2021/12/02 03:29:55;;;;;;;0.90;0.55;;;21.50;36.60;;;;;;4970448;28;20884;-68
2021/12/02 03:32:21;;;;;;;1.50;0.70;;;21.60;36.60;;;;;;4967960;28;20436;-67
2021/12/02 03:34:47;;;;;;;1.00;0.70;;;21.50;36.50;;;;;;4970707;28;20490;-67
2021/12/02 03:37:13;;;;;;;0.88;0.50;;;21.50;36.50;;;;;;4976057;28;20841;-68
2021/12/02 03:39:38;;;;;;;0.70;0.50;;;21.50;36.50;;;;;;4973878;28;20403;-67
2021/12/02 03:42:05;;;;;;;1.15;0.60;;;21.50;36.50;;;;;;4974903;28;20469;-67
2021/12/02 03:44:32;;;;;;;1.00;0.60;;;21.50;36.50;;;;;;4976605;28;20393;-68
2021/12/02 03:46:58;;;;;;;0.98;0.60;;;21.50;36.60;;;;;;4970891;28;20407;-68
2021/12/02 03:49:23;;;;;;;0.95;0.60;;;21.50;36.50;;;;;;4972059;28;20392;-68
2021/12/02 03:51:49;;;;;;;1.40;0.70;;;21.50;36.60;;;;;;4976207;28;20422;-67
2021/12/02 03:54:15;;;;;;;1.13;0.55;;;21.50;36.60;;;;;;4974267;28;20525;-68
2021/12/02 03:56:41;;;;;;;1.10;0.60;;;21.50;36.60;;;;;;4972121;28;20401;-68
2021/12/02 03:59:07;;;;;;;1.10;0.60;;;21.50;36.60;;;;;;4973832;28;20413;-69
2021/12/02 04:01:32;;;;;;;1.00;0.70;;;21.50;36.60;;;;;;4972075;28;20403;-71
2021/12/02 04:03:58;;;;;;;1.30;0.60;;;21.50;36.60;;;;;;4977786;28;20410;-68
2021/12/02 04:06:24;;;;;;;1.92;0.55;;;21.50;36.60;;;;;;4971306;28;20401;-68
2021/12/02 04:08:54;;;;;;;2.30;0.70;;;21.40;36.80;;;;;;4971930;28;20402;-68
2021/12/02 04:14:01;;;;;;;3.43;0.80;;;21.50;36.80;;;;;;4967623;28;20431;-67
2021/12/02 04:16:29;;;;;;;3.40;1.80;;;21.50;37.50;;;;;;4969073;28;20390;-68
2021/12/02 04:18:55;;;;;;;3.00;1.30;;;21.50;40.20;;;;;;4971163;28;20441;-67
2021/12/02 04:21:20;;;;;;;3.13;1.20;;;21.60;41.10;;;;;;4973789;28;20488;-67
2021/12/02 04:23:46;;;;;;;3.13;1.20;;;21.60;40.30;;;;;;4969691;28;20950;-68
2021/12/02 04:26:12;;;;;;;3.28;1.10;;;21.70;40.50;;;;;;4977509;28;20441;-67
2021/12/02 04:28:38;;;;;;;1.80;0.95;;;21.70;39.80;;;;;;4976896;28;20394;-68
2021/12/02 04:31:04;;;;;;;2.43;1.00;;;21.70;39.30;;;;;;4970952;28;20397;-68
2021/12/02 04:33:30;;;;;;;2.38;0.80;;;21.70;39.20;;;;;;4974798;28;20408;-67
2021/12/02 04:35:57;;;;;;;2.05;0.90;;;21.70;39.40;;;;;;4971213;28;20418;-67
2021/12/02 04:38:22;;;;;;;2.47;0.90;;;21.80;39.60;;;;;;4973515;28;20480;-67
2021/12/02 04:40:48;;;;;;;3.08;0.90;;;21.70;39.60;;;;;;4968238;28;20390;-67
2021/12/02 04:43:14;;;;;;;2.58;0.80;;;21.80;39.80;;;;;;4972290;28;20640;-68
2021/12/02 04:45:39;;;;;;;1.90;0.90;;;21.80;39.80;;;;;;4976674;28;20403;-68
2021/12/02 04:48:06;;;;;;;3.58;0.90;;;21.70;39.10;;;;;;4975575;28;20405;-68
2021/12/02 04:50:32;;;;;;;1.80;0.70;;;21.70;38.60;;;;;;4967172;28;20424;-68
2021/12/02 04:52:58;;;;;;;1.50;0.68;;;21.70;38.00;;;;;;4970841;28;20453;-68
2021/12/02 04:55:24;;;;;;;1.58;0.60;;;21.70;37.70;;;;;;4974348;28;21501;-68
2021/12/02 04:57:50;;;;;;;1.70;0.60;;;21.70;38.20;;;;;;4976475;28;21311;-68
2021/12/02 05:00:16;;;;;;;1.55;0.63;;;21.70;37.80;;;;;;4966481;28;20415;-68
2021/12/02 05:02:42;;;;;;;3.88;0.70;;;21.70;37.70;;;;;;4971113;28;20393;-68
2021/12/02 05:05:09;;;;;;;1.63;0.60;;;21.60;37.70;;;;;;4973902;28;20478;-68
2021/12/02 05:07:35;;;;;;;1.05;0.60;;;21.60;37.60;;;;;;4973991;28;20400;-68
2021/12/02 05:10:02;;;;;;;2.60;0.70;;;21.70;37.50;;;;;;4973761;28;20458;-67
2021/12/02 05:12:28;;;;;;;0.90;0.60;;;21.70;37.50;;;;;;4972702;28;20460;-67
2021/12/02 05:14:53;;;;;;;1.63;0.60;;;21.60;37.40;;;;;;4975316;28;20583;-67
2021/12/02 05:17:19;;;;;;;1.00;0.60;;;21.60;37.30;;;;;;4969756;28;20404;-68
2021/12/02 05:19:45;;;;;;;1.13;0.60;;;21.60;37.30;;;;;;4969699;28;20413;-68
2021/12/02 05:22:12;;;;;;;1.00;0.70;;;21.60;37.20;;;;;;4973655;28;20481;-68
2021/12/02 05:24:38;;;;;;;2.07;0.60;;;21.60;37.20;;;;;;4969972;28;20460;-67
2021/12/02 05:27:04;;;;;;;1.52;0.60;;;21.60;37.30;;;;;;4971230;28;20440;-68
2021/12/02 05:29:30;;;;;;;1.20;0.70;;;21.60;37.20;;;;;;4974950;28;20399;-67
2021/12/02 05:31:56;;;;;;;1.30;0.70;;;21.60;37.10;;;;;;4970089;28;20441;-67
2021/12/02 05:34:21;;;;;;;1.30;0.80;;;21.60;37.10;;;;;;4970856;28;20408;-67
2021/12/02 05:36:47;;;;;;;0.97;0.60;;;21.60;37.10;;;;;;4974429;28;20382;-68
2021/12/02 05:39:13;;;;;;;1.52;0.70;;;21.60;37.00;;;;;;4971568;28;20481;-68
2021/12/02 05:41:38;;;;;;;1.40;0.50;;;21.60;37.00;;;;;;4975205;28;20389;-68
2021/12/02 05:44:04;;;;;;;1.40;0.60;;;21.60;37.10;;;;;;4971590;28;21589;-68
2021/12/02 05:46:31;;;;;;;1.40;0.60;;;21.60;37.00;;;;;;4973144;28;20405;-69
2021/12/02 05:48:56;;;;;;;1.15;0.60;;;21.60;37.00;;;;;;4973762;28;20428;-68
2021/12/02 05:51:22;;;;;;;1.30;0.60;;;21.50;37.00;;;;;;4976025;28;20695;-73
2021/12/02 05:53:48;;;;;;;1.10;0.68;;;21.50;37.30;;;;;;4975520;28;20399;-72
2021/12/02 05:56:14;;;;;;;2.72;0.70;;;21.50;37.50;;;;;;4978489;28;20392;-75
2021/12/02 05:58:39;;;;;;;2.90;0.70;;;21.60;38.00;;;;;;4979518;28;20433;-72
2021/12/02 06:01:05;;;;;;;3.85;0.90;;;21.60;37.80;;;;;;4975142;28;20386;-68
2021/12/02 06:03:35;;;;;;;2.80;0.80;;;21.70;38.20;;;;;;4973534;28;20408;-68
2021/12/02 06:06:00;;;;;;;2.13;0.65;;;21.70;38.70;;;;;;4976475;28;21315;-68
2021/12/02 06:08:26;;;;;;;2.90;0.80;;;21.70;38.50;;;;;;4972814;28;20489;-68
2021/12/02 06:10:52;;;;;;;2.60;0.70;;;21.70;38.10;;;;;;4973925;28;20897;-76
2021/12/02 06:13:17;;;;;;;2.17;0.90;;;21.70;38.10;;;;;;4972916;28;20857;-67
2021/12/02 06:15:43;;;;;;;2.17;0.80;;;21.70;38.10;;;;;;4970646;28;20422;-68
2021/12/02 06:18:09;;;;;;;1.57;0.60;;;21.70;38.40;;;;;;4975732;28;20549;-75
2021/12/02 06:20:35;;;;;;;3.60;0.70;;;21.80;38.70;;;;;;4974322;28;20459;-70
2021/12/02 06:23:00;;;;;;;2.60;0.80;;;21.80;38.00;;;;;;4974283;28;20422;-69
2021/12/02 06:27:53;;;;;;;3.25;1.10;;;21.70;38.90;;;;;;4976659;28;20396;-69
2021/12/02 06:30:21;;;;;;;3.70;0.90;;;21.80;38.60;;;;;;4978130;28;20936;-73
2021/12/02 06:32:48;;;;;;;3.92;1.02;;;21.70;38.40;;;;;;4976629;28;20445;-71
2021/12/02 06:35:14;;;;;;;4.10;1.85;;;21.70;38.20;;;;;;4975686;28;20401;-78
2021/12/02 06:37:41;;;;;;;2.97;1.20;;;21.70;38.00;;;;;;4977629;28;20398;-74
2021/12/02 06:40:08;;;;;;;3.10;1.15;;;21.70;37.90;;;;;;4967604;28;20455;-70
2021/12/02 06:42:34;;;;;;;1.97;0.90;;;21.60;38.10;;;;;;4978298;28;20841;-71
2021/12/02 06:45:00;;;;;;;4.35;1.08;;;21.60;37.30;;;;;;4976113;28;20398;-70
2021/12/02 06:47:29;;;;;;;2.75;1.00;;;21.60;37.60;;;;;;4974148;28;20430;-70
2021/12/02 06:49:56;;;;;;;3.15;1.20;;;21.60;37.40;;;;;;4973637;28;20389;-69
2021/12/02 06:52:23;;;;;;;2.05;1.08;;;21.60;37.40;;;;;;4977726;28;20414;-70
2021/12/02 06:54:49;;;;;;;2.90;1.10;;;21.60;37.30;;;;;;4976968;28;21202;-71
2021/12/02 06:57:16;;;;;;;2.92;1.00;;;21.60;37.20;;;;;;4972716;28;20477;-70
2021/12/02 06:59:42;;;;;;;2.22;0.93;;;21.60;37.10;;;;;;4973921;28;20608;-70
2021/12/02 07:02:08;;;;;;;2.17;0.80;;;21.60;37.30;;;;;;4978755;28;20757;-69
2021/12/02 07:04:34;;;;;;;2.35;0.88;;;21.60;37.00;;;;;;4970368;28;20411;-71
2021/12/02 07:07:00;;;;;;;1.50;0.90;;;21.60;37.00;;;;;;4973612;28;20393;-72
2021/12/02 07:09:25;;;;;;;1.95;0.82;;;21.60;36.90;;;;;;4977292;28;20382;-70
2021/12/02 07:11:51;;;;;;;1.90;0.80;;;21.60;37.00;;;;;;4976296;28;20423;-72
2021/12/02 07:14:19;;;;;;;2.17;0.82;;;21.50;36.80;;;;;;4976309;28;20399;-77
2021/12/02 07:16:45;;;;;;;2.20;0.70;;;21.60;36.80;;;;;;4973639;28;20408;-72
2021/12/02 07:19:12;;;;;;;1.77;1.08;;;21.60;36.70;;;;;;4980241;28;20533;-70
2021/12/02 07:21:40;;;;;;;1.98;0.90;;;21.60;36.70;;;;;;4968244;28;20902;-73
2021/12/02 07:24:07;;;;;;;1.60;0.80;;;21.60;36.70;;;;;;4975890;28;20530;-76
2021/12/02 07:26:41;;;;;;;1.65;0.90;;;21.50;36.90;;;;;;4973544;28;20431;-71
2021/12/02 07:29:18;;;;;;;1.48;0.70;;;21.50;37.20;;;;;;4977262;28;20403;-77
2021/12/02 07:31:44;;;;;;;2.25;0.90;;;21.50;37.00;;;;;;4975295;28;20421;-70
2021/12/02 07:34:10;;;;;;;1.63;0.82;;;21.50;36.90;;;;;;4975806;28;20751;-77
2021/12/02 07:36:37;;;;;;;1.23;0.80;;;21.50;36.90;;;;;;4976708;28;20404;-75
2021/12/02 07:39:07;;;;;;;1.58;0.80;;;21.50;36.90;;;;;;4975604;28;20920;-76
2021/12/02 07:41:33;;;;;;;1.67;0.88;;;21.50;36.90;;;;;;4976691;28;20402;-77
2021/12/02 07:43:59;;;;;;;2.00;0.77;;;21.50;36.80;;;;;;4976048;28;20515;-75
2021/12/02 07:46:25;;;;;;;1.45;0.80;;;21.50;36.70;;;;;;4973699;28;20487;-74
2021/12/02 07:48:52;;;;;;;1.45;0.60;;;21.50;36.70;;;;;;4975732;28;20909;-75
2021/12/02 07:51:20;;;;;;;1.15;0.70;;;21.50;36.70;;;;;;4989868;28;20456;-77
2021/12/02 07:53:47;;;;;;;1.40;0.82;;;21.50;36.60;;;;;;4976091;28;20890;-75
2021/12/02 07:56:16;;;;;;;1.95;0.70;;;21.50;36.60;;;;;;4976093;28;20968;-72
2021/12/02 07:58:46;;;;;;;1.50;0.70;;;21.50;36.60;;;;;;4973126;28;20410;-76
2021/12/02 08:01:13;;;;;;;2.07;0.70;;;21.50;36.70;;;;;;4972040;28;20408;-77
2021/12/02 08:03:47;;;;;;;1.17;0.70;;;21.50;36.70;;;;;;4973994;28;20903;-73
2021/12/02 08:06:15;;;;;;;1.60;0.70;;;21.50;36.70;;;;;;4975560;28;20405;-78
2021/12/02 08:08:45;;;;;;;1.20;0.70;;;21.50;36.70;;;;;;4974599;28;20394;-77
2021/12/02 08:11:11;;;;;;;1.55;0.70;;;21.50;36.70;;;;;;4971213;28;20410;-73
2021/12/02 08:13:37;;;;;;;1.25;0.70;;;21.50;36.60;;;;;;4974212;28;20414;-72
2021/12/02 08:16:05;;;;;;;1.57;0.70;;;21.50;36.60;;;;;;4973545;28;20406;-75
2021/12/02 08:18:32;;;;;;;1.30;0.70;;;21.50;36.60;;;;;;4970727;28;20402;-71
2021/12/02 08:20:59;;;;;;;1.10;0.60;;;21.50;36.60;;;;;;4969125;28;20403;-78
2021/12/02 08:23:25;;;;;;;1.80;0.80;;;21.50;36.50;;;;;;4978364;28;20464;-76
2021/12/02 08:25:51;;;;;;;1.45;0.80;;;21.50;36.50;;;;;;4976442;28;20430;-77
2021/12/02 08:28:16;;;;;;;1.20;0.80;;;21.50;36.50;;;;;;4973308;28;20472;-73
2021/12/02 08:30:43;;;;;;;1.15;0.70;;;21.50;36.50;;;;;;4972226;28;20419;-75
2021/12/02 08:33:12;;;;;;;1.30;0.68;;;21.50;36.50;;;;;;4974722;28;20441;-77
2021/12/02 08:35:37;;;;;;;1.20;0.70;;;21.50;36.50;;;;;;4975422;28;20399;-77
2021/12/02 08:38:13;;;;;;;1.20;0.70;;;21.50;36.50;;;;;;4972451;28;20404;-78
2021/12/02 08:40:40;;;;;;;1.50;0.75;;;21.50;36.50;;;;;;4975122;28;20399;-76
2021/12/02 08:43:08;;;;;;;1.60;0.80;;;21.50;36.50;;;;;;4975990;28;20429;-76
2021/12/02 08:45:39;;;;;;;1.33;0.70;;;21.50;36.50;;;;;;4976692;28;20382;-77
2021/12/02 08:48:06;;;;;;;1.50;0.80;;;21.50;36.50;;;;;;4977833;28;20410;-77
2021/12/02 08:50:33;;;;;;;1.52;0.77;;;21.50;36.50;;;;;;4974593;28;20757;-71
2021/12/02 08:53:00;;;;;;;1.40;0.70;;;21.50;36.50;;;;;;4974583;28;20508;-74
2021/12/02 08:55:29;;;;;;;1.88;0.95;;;21.50;36.50;;;;;;4977826;28;20871;-75
2021/12/02 08:57:56;;;;;;;1.30;0.90;;;21.50;36.50;;;;;;4973206;28;20853;-76
2021/12/02 09:00:27;;;;;;;1.92;1.00;;;21.50;36.50;;;;;;4970214;28;20396;-76
2021/12/02 09:02:56;;;;;;;1.48;0.90;;;21.40;36.50;;;;;;4976872;28;20404;-77
2021/12/02 09:05:22;;;;;;;1.50;0.87;;;21.50;36.50;;;;;;4972483;28;20921;-77
2021/12/02 09:07:47;;;;;;;1.55;0.90;;;21.50;36.50;;;;;;4976218;28;20403;-76
2021/12/02 09:10:14;;;;;;;1.60;0.90;;;21.40;36.40;;;;;;4970958;28;20408;-73
2021/12/02 09:12:42;;;;;;;1.58;0.90;;;21.50;36.50;;;;;;4973695;28;20959;-75
2021/12/02 09:15:08;;;;;;;1.63;0.88;;;21.50;36.50;;;;;;4970382;28;20994;-76
2021/12/02 09:17:35;;;;;;;1.60;1.00;;;21.50;36.50;;;;;;4971699;28;20867;-76
2021/12/02 09:20:02;;;;;;;1.60;0.90;;;21.50;36.50;;;;;;4974724;28;20420;-78
2021/12/02 09:22:28;;;;;;;1.63;1.02;;;21.50;36.50;;;;;;4974096;28;20398;-77
2021/12/02 09:24:53;;;;;;;2.03;1.00;;;21.40;36.40;;;;;;4975985;28;20403;-71
2021/12/02 09:27:19;;;;;;;1.67;0.90;;;21.50;36.50;;;;;;4973015;28;20396;-76
2021/12/02 09:29:45;;;;;;;1.73;0.80;;;21.50;36.50;;;;;;4975271;28;20400;-77
2021/12/02 09:32:11;;;;;;;1.57;0.90;;;21.50;36.50;;;;;;4974711;28;20612;-76
2021/12/02 09:34:38;;;;;;;1.58;0.90;;;21.40;36.40;;;;;;4961416;28;20526;-71
2021/12/02 09:37:04;;;;;;;1.60;0.90;;;21.50;36.50;;;;;;4975731;28;20467;-70
2021/12/02 09:39:32;;;;;;;1.63;0.98;;;21.50;36.40;;;;;;4975135;28;20400;-77
2021/12/02 09:41:58;;;;;;;1.70;0.90;;;21.40;36.40;;;;;;4974774;28;20556;-77
2021/12/02 09:44:24;;;;;;;1.60;1.00;;;21.40;36.40;;;;;;4975780;28;20479;-78
2021/12/02 09:46:55;;;;;;;1.90;0.80;;;21.40;36.40;;;;;;4976378;28;20443;-72
2021/12/02 09:49:23;;;;;;;1.63;0.90;;;21.40;36.40;;;;;;4975044;28;20398;-76
2021/12/02 09:54:23;;;;;;;1.63;0.93;;;21.40;36.40;;;;;;4973910;28;20414;-77
2021/12/02 09:56:53;;;;;;;1.48;1.00;;;21.40;36.40;;;;;;4976248;28;20402;-74
2021/12/02 09:59:28;;;;;;;1.70;1.00;;;21.40;36.40;;;;;;4978293;28;20893;-71
2021/12/02 10:02:01;;;;;;;1.83;1.00;;;21.40;36.50;;;;;;4974248;28;20404;-77
2021/12/02 10:04:29;;;;;;;1.50;0.93;;;21.40;36.40;;;;;;4975121;28;20765;-71
2021/12/02 10:10:15;;;;;;;1.30;0.90;;;21.40;36.40;;;;;;4968530;28;20506;-71
2021/12/02 10:13:17;;;;;;;1.60;1.00;;;21.40;36.40;;;;;;4968502;28;20513;-72
2021/12/02 10:15:53;;;;;;;1.77;1.00;;;21.40;36.40;;;;;;4974640;28;20391;-72
2021/12/02 10:18:21;;;;;;;1.10;0.70;;;21.40;36.30;;;;;;4972591;28;20402;-69
2021/12/02 10:20:50;;;;;;;1.63;1.00;;;21.40;36.30;;;;;;4989565;28;21035;-71
2021/12/02 10:23:32;;;;;;;1.50;0.90;;;21.40;36.30;;;;;;4971192;28;20448;-70
2021/12/02 10:26:00;;;;;;;1.35;0.80;;;21.40;36.30;;;;;;4969390;28;20483;-74
2021/12/02 10:28:34;;;;;;;1.40;0.90;;;21.40;36.30;;;;;;4971066;28;20399;-70
2021/12/02 10:31:03;;;;;;;1.83;0.95;;;21.40;36.30;;;;;;4974855;28;20392;-70
2021/12/02 10:33:32;;;;;;;1.45;0.95;;;21.40;36.30;;;;;;4971334;28;20433;-70
2021/12/02 10:35:58;;;;;;;1.52;0.90;;;21.40;36.30;;;;;;4969710;28;20594;-70
2021/12/02 10:38:43;;;;;;;1.25;0.80;;;21.40;36.30;;;;;;4973689;28;20764;-72
2021/12/02 10:41:17;;;;;;;1.30;0.90;;;21.40;36.30;;;;;;4972199;28;20384;-74
2021/12/02 10:44:01;;;;;;;1.60;1.00;;;21.40;36.30;;;;;;4971417;28;20408;-71
2021/12/02 10:46:27;;;;;;;1.35;0.90;;;21.40;36.30;;;;;;4972816;28;20827;-77
2021/12/02 10:48:53;;;;;;;1.60;0.98;;;21.40;36.30;;;;;;4977505;28;20473;-70
2021/12/02 10:51:50;;;;;;;1.73;1.20;;;21.40;36.30;;;;;;4975322;28;20439;-77
2021/12/02 10:54:31;;;;;;;1.80;1.02;;;21.40;36.30;;;;;;4970271;28;20408;-69
2021/12/02 10:57:00;;;;;;;1.70;1.10;;;21.40;36.30;;;;;;4973216;28;20402;-71
2021/12/02 10:59:43;;;;;;;1.85;1.20;;;21.40;36.30;;;;;;4976025;28;20812;-69
2021/12/02 11:02:20;;;;;;;2.25;1.10;;;21.40;36.30;;;;;;4973045;28;20392;-70
2021/12/02 11:05:06;;;;;;;2.20;1.33;;;21.40;36.30;;;;;;4977844;28;20404;-72
2021/12/02 11:07:38;;;;;;;2.10;1.27;;;21.40;36.20;;;;;;4968616;28;20949;-73
2021/12/02 11:10:15;;;;;;;2.40;1.40;;;21.40;36.30;;;;;;4977862;28;20390;-70
2021/12/02 11:12:48;;;;;;;2.08;1.30;;;21.40;36.20;;;;;;4970970;28;20432;-71
2021/12/02 11:15:13;;;;;;;2.08;1.35;;;21.40;36.20;;;;;;4973467;28;20403;-72
2021/12/02 11:18:09;;;;;;;2.67;1.53;;;21.40;36.20;;;;;;4972186;28;20759;-72
2021/12/02 11:20:47;;;;;;;2.50;1.60;;;21.40;36.20;;;;;;4969250;28;20511;-70
2021/12/02 11:23:14;;;;;;;2.20;1.58;;;21.40;36.20;;;;;;4974439;28;20443;-70
2021/12/02 11:26:02;;;;;;;2.75;1.70;;;21.40;36.20;;;;;;4979080;28;20961;-72
2021/12/02 11:28:30;;;;;;;2.97;1.80;;;21.40;36.20;;;;;;4972607;28;20414;-70
2021/12/02 11:31:00;;;;;;;2.80;1.70;;;21.40;36.20;;;;;;4969040;28;20978;-71
2021/12/02 11:33:39;;;;;;;2.70;1.67;;;21.40;36.20;;;;;;4972985;28;20437;-70
2021/12/02 11:36:07;;;;;;;3.00;1.88;;;21.40;36.10;;;;;;4985293;28;20403;-72
2021/12/02 11:38:34;;;;;;;2.75;1.80;;;21.40;36.10;;;;;;4970729;28;20497;-75
2021/12/02 11:41:02;;;;;;;3.05;1.80;;;21.40;36.20;;;;;;4973099;28;20477;-71
2021/12/02 11:43:34;;;;;;;2.92;1.83;;;21.40;36.10;;;;;;4976517;28;20416;-74
2021/12/02 11:46:02;;;;;;;2.22;1.58;;;21.40;36.20;;;;;;4973354;28;20417;-75
2021/12/02 11:48:34;;;;;;;5.03;1.90;;;21.40;36.40;;;;;;4969435;28;20512;-72
2021/12/02 11:51:05;;;;;;;4.20;1.65;;;21.40;36.40;;;;;;4970974;28;20400;-74
2021/12/02 11:53:31;;;;;;;4.45;1.85;;;21.30;36.40;;;;;;4972365;28;20464;-74
2021/12/02 11:56:09;;;;;;;4.00;1.80;;;21.40;36.50;;;;;;4973805;28;20851;-72
2021/12/02 11:58:35;;;;;;;3.35;1.70;;;21.40;36.60;;;;;;4975225;28;20419;-70
2021/12/02 12:01:02;;;;;;;3.45;1.90;;;21.40;36.60;;;;;;4975237;28;20403;-77
2021/12/02 12:03:37;;;;;;;4.15;1.60;;;21.40;36.60;;;;;;4969939;28;20832;-73
2021/12/02 12:06:21;;;;;;;2.70;1.67;;;21.40;36.60;;;;;;4969899;28;20419;-74
2021/12/02 12:08:50;;;;;;;2.33;1.50;;;21.40;36.50;;;;;;4973333;28;20411;-77
2021/12/02 12:11:22;;;;;;;2.70;1.50;;;21.30;36.40;;;;;;4972935;28;20405;-74
2021/12/02 12:13:52;;;;;;;2.40;1.52;;;21.40;36.40;;;;;;4974584;28;20424;-77
2021/12/02 12:16:25;;;;;;;3.40;1.80;;;21.40;36.40;;;;;;4975943;28;20392;-74
2021/12/02 12:18:52;;;;;;;2.83;1.55;;;21.40;36.40;;;;;;4975747;28;20422;-78
2021/12/02 12:21:18;;;;;;;2.55;1.52;;;21.30;36.30;;;;;;4975020;28;20417;-75
2021/12/02 12:23:57;;;;;;;2.60;1.50;;;21.40;36.40;;;;;;4975515;28;20429;-71
2021/12/02 12:26:45;;;;;;;2.50;1.50;;;21.40;36.30;;;;;;4974198;28;20400;-77
2021/12/02 12:29:13;;;;;;;2.60;1.30;;;21.40;36.40;;;;;;4974985;28;20403;-78
2021/12/02 12:31:51;;;;;;;2.60;1.33;;;21.40;36.30;;;;;;4977411;28;20390;-73
2021/12/02 12:34:37;;;;;;;2.03;1.25;;;21.40;36.30;;;;;;4974931;28;20412;-76
2021/12/02 12:40:13;;;;;;;2.13;1.35;;;21.40;36.30;;;;;;4972406;28;20549;-75
2021/12/02 12:42:57;;;;;;;3.33;1.40;;;21.40;36.30;;;;;;4973624;28;20399;-73
2021/12/02 12:45:34;;;;;;;2.85;1.23;;;21.30;36.30;;;;;;4973871;28;20437;-78
2021/12/02 12:48:01;;;;;;;2.13;1.23;;;21.30;36.20;;;;;;4976387;28;20904;-76
2021/12/02 12:50:40;;;;;;;1.90;1.10;;;21.30;36.20;;;;;;4974735;28;20975;-74
2021/12/02 12:53:07;;;;;;;2.58;1.30;;;21.30;36.20;;;;;;4971788;28;20451;-71
2021/12/02 12:55:38;;;;;;;2.40;1.20;;;21.30;36.20;;;;;;4969615;28;20436;-77
2021/12/02 12:58:14;;;;;;;2.25;1.30;;;21.40;36.20;;;;;;4974395;28;20912;-76
2021/12/02 13:00:44;;;;;;;2.22;1.10;;;21.30;36.20;;;;;;4974737;28;20385;-73
2021/12/02 13:03:26;;;;;;;2.45;1.27;;;21.30;36.70;;;;;;4971084;28;20404;-75
2021/12/02 13:05:56;;;;;;;1.80;1.10;;;21.30;36.20;;;;;;4973999;28;20392;-78
2021/12/02 13:08:24;;;;;;;2.17;1.20;;;21.30;36.20;;;;;;4974004;28;20415;-77
2021/12/02 13:10:59;;;;;;;1.83;1.10;;;21.30;36.20;;;;;;4972268;28;20863;-77
2021/12/02 13:13:34;;;;;;;1.67;1.00;;;21.30;36.10;;;;;;4974585;28;20439;-74
2021/12/02 13:16:21;;;;;;;2.58;1.10;;;21.40;36.10;;;;;;4977610;28;20434;-73
2021/12/02 13:19:00;;;;;;;1.73;1.00;;;21.30;36.00;;;;;;4971954;28;20423;-76
2021/12/02 13:21:32;;;;;;;1.50;0.90;;;21.30;36.20;;;;;;4969200;28;20455;-71
2021/12/02 13:24:17;;;;;;;2.00;0.90;;;21.30;36.90;;;;;;4968041;28;20431;-73
2021/12/02 13:26:54;;;;;;;1.60;1.00;;;21.40;36.40;;;;;;4972709;28;20495;-72
2021/12/02 13:29:22;;;;;;;1.80;1.00;;;21.30;36.60;;;;;;4972769;28;20400;-72